Time;durP1;ratioP1;P1;durP2;ratioP2;P2;SDS_P1;SDS_P2;PMS_P1;PMS_P2;Temp;Humidity;BMP_temperature;BMP_pressure;BME280_temperature;BME280_humidity;BME280_pressure;Samples;Min_cycle;Max_cycle;Signal;HPM_P1;HPM_P2
2021/10/18 00:00:15;;;;;;;7.90;4.20;;;9.00;99.90;8.90;101284.00;;;;4936529;28;92247;-64
2021/10/18 00:02:42;;;;;;;5.67;3.70;;;9.00;99.90;8.90;101289.00;;;;4934904;28;121254;-63
2021/10/18 00:05:10;;;;;;;4.57;3.73;;;8.90;99.90;8.90;101293.00;;;;4934851;28;115610;-64
2021/10/18 00:07:36;;;;;;;4.73;3.73;;;8.90;99.90;8.90;101289.00;;;;4936289;28;93674;-63
2021/10/18 00:10:06;;;;;;;5.63;3.67;;;8.90;99.90;8.90;101286.00;;;;4935394;28;94561;-63
2021/10/18 00:12:31;;;;;;;6.20;4.33;;;8.90;99.90;8.80;101287.00;;;;4936286;28;94119;-63
2021/10/18 00:14:57;;;;;;;7.63;3.97;;;8.90;99.90;8.80;101286.00;;;;4934613;28;123413;-65
2021/10/18 00:17:23;;;;;;;8.40;4.00;;;8.90;99.90;8.80;101289.00;;;;4936077;28;110087;-62
2021/10/18 00:19:49;;;;;;;7.93;4.37;;;8.90;99.90;8.80;101291.00;;;;4936076;28;93036;-62
2021/10/18 00:22:15;;;;;;;8.17;4.13;;;8.90;99.90;8.80;101297.00;;;;4935970;28;94120;-62
2021/10/18 00:24:41;;;;;;;5.97;3.63;;;8.90;99.90;8.80;101299.00;;;;4935686;28;101446;-63
2021/10/18 00:27:07;;;;;;;6.33;3.67;;;8.90;99.90;8.80;101303.00;;;;4935561;28;111147;-63
2021/10/18 00:29:32;;;;;;;10.13;4.87;;;8.80;99.90;8.80;101292.00;;;;4935650;28;93021;-62
2021/10/18 00:31:58;;;;;;;5.27;4.27;;;8.80;99.90;8.80;101306.00;;;;4935067;28;124473;-63
2021/10/18 00:34:24;;;;;;;6.10;3.97;;;8.90;99.90;8.80;101300.00;;;;4934581;28;121433;-62
2021/10/18 00:36:50;;;;;;;5.90;4.20;;;8.80;99.90;8.80;101305.00;;;;4935737;28;110582;-61
2021/10/18 00:39:15;;;;;;;6.57;5.00;;;8.80;99.90;8.80;101303.00;;;;4935926;28;93231;-62
2021/10/18 00:41:41;;;;;;;5.67;4.67;;;8.90;99.90;8.80;101299.00;;;;4934819;28;122952;-62
2021/10/18 00:44:07;;;;;;;5.13;4.53;;;8.80;99.90;8.80;101298.00;;;;4935251;28;92790;-62
2021/10/18 00:46:33;;;;;;;6.33;4.40;;;8.90;99.90;8.80;101299.00;;;;4935983;28;92675;-62
2021/10/18 00:48:59;;;;;;;5.80;4.10;;;8.80;99.90;8.80;101306.00;;;;4935408;28;92338;-61
2021/10/18 00:51:27;;;;;;;9.37;5.13;;;8.80;99.90;8.80;101298.00;;;;4934609;28;122372;-61
2021/10/18 00:53:56;;;;;;;9.03;4.37;;;8.80;99.90;8.70;101293.00;;;;4917414;28;92891;-61
2021/10/18 00:56:23;;;;;;;6.63;4.80;;;8.80;99.90;8.70;101292.00;;;;4935466;28;93892;-61
2021/10/18 00:58:50;;;;;;;7.73;4.67;;;8.80;99.90;8.70;101290.00;;;;4917319;28;92960;-61
2021/10/18 01:01:17;;;;;;;10.23;4.17;;;8.80;99.90;8.70;101295.00;;;;4929859;28;93537;-61
2021/10/18 01:03:43;;;;;;;6.57;4.60;;;8.80;99.90;8.80;101285.00;;;;4935422;28;93216;-62
2021/10/18 01:06:10;;;;;;;7.13;4.40;;;8.80;99.90;8.80;101286.00;;;;4937334;28;92907;-61
2021/10/18 01:08:36;;;;;;;7.87;5.57;;;8.80;99.90;8.70;101277.00;;;;4946025;28;93033;-60
2021/10/18 01:11:02;;;;;;;7.67;5.00;;;8.80;99.90;8.80;101280.00;;;;4938332;28;121651;-62
2021/10/18 01:13:28;;;;;;;8.17;5.13;;;8.80;99.90;8.80;101288.00;;;;4935689;28;92205;-61
2021/10/18 01:15:54;;;;;;;6.17;5.07;;;8.80;99.90;8.80;101289.00;;;;4917532;28;93064;-61
2021/10/18 01:18:20;;;;;;;10.70;5.73;;;8.80;99.90;8.80;101286.00;;;;4935177;28;92959;-61
2021/10/18 01:20:46;;;;;;;8.10;5.03;;;8.80;99.90;8.70;101281.00;;;;4933663;28;123826;-61
2021/10/18 01:23:12;;;;;;;9.43;5.23;;;8.80;99.90;8.70;101285.00;;;;4933570;28;123954;-61
2021/10/18 01:25:39;;;;;;;5.63;4.50;;;8.80;99.90;8.80;101282.00;;;;4934210;28;110798;-59
2021/10/18 01:28:06;;;;;;;6.60;5.00;;;8.80;99.90;8.80;101285.00;;;;4917292;28;92979;-61
2021/10/18 01:30:33;;;;;;;7.23;5.13;;;8.80;99.90;8.80;101276.00;;;;4934690;28;94635;-61
2021/10/18 01:32:59;;;;;;;8.23;4.03;;;8.80;99.90;8.70;101285.00;;;;4933675;28;123182;-59
2021/10/18 01:35:25;;;;;;;7.53;4.80;;;8.80;99.90;8.80;101289.00;;;;4934976;28;92640;-61
2021/10/18 01:37:51;;;;;;;6.73;5.00;;;8.80;99.90;8.80;101287.00;;;;4936178;28;91952;-62
2021/10/18 01:40:21;;;;;;;8.10;5.13;;;8.80;99.90;8.80;101288.00;;;;4934472;28;94171;-61
2021/10/18 01:42:48;;;;;;;5.67;4.63;;;8.80;99.90;8.80;101296.00;;;;4934147;28;92797;-61
2021/10/18 01:45:16;;;;;;;7.17;4.60;;;8.80;99.90;8.80;101298.00;;;;4916613;28;94050;-61
2021/10/18 01:47:42;;;;;;;4.37;3.70;;;8.90;99.90;8.80;101292.00;;;;4935310;28;92957;-61
2021/10/18 01:50:15;;;;;;;6.27;4.77;;;9.40;99.90;8.80;101286.00;;;;4934382;28;93429;-61
2021/10/18 01:52:43;;;;;;;5.33;4.13;;;8.90;99.90;8.80;101290.00;;;;4934916;28;93300;-62
2021/10/18 01:55:10;;;;;;;6.23;4.30;;;8.90;99.90;8.80;101301.00;;;;4934781;28;92974;-61
2021/10/18 01:57:36;;;;;;;8.40;5.17;;;8.90;99.90;8.80;101293.00;;;;4934805;28;93150;-63
2021/10/18 02:00:05;;;;;;;6.23;4.47;;;9.10;99.90;8.90;101305.00;;;;4933578;28;96163;-63
2021/10/18 02:02:30;;;;;;;7.43;4.27;;;8.90;99.90;8.90;101303.00;;;;4935132;28;93124;-62
2021/10/18 02:04:56;;;;;;;6.97;4.30;;;8.90;99.90;8.90;101296.00;;;;4933113;28;109271;-62
2021/10/18 02:07:23;;;;;;;6.33;4.33;;;8.90;99.90;8.90;101306.00;;;;4934159;28;108725;-61
2021/10/18 02:09:49;;;;;;;6.67;4.50;;;9.10;99.90;8.90;101306.00;;;;4933624;28;94731;-60
2021/10/18 02:12:15;;;;;;;4.13;3.73;;;9.00;99.90;8.90;101302.00;;;;4933712;28;107321;-62
2021/10/18 02:14:40;;;;;;;8.93;4.57;;;9.00;99.90;8.90;101308.00;;;;4934761;28;93106;-62
2021/10/18 02:17:06;;;;;;;7.57;4.53;;;9.00;99.90;8.90;101304.00;;;;4934083;28;108409;-63
2021/10/18 02:19:32;;;;;;;7.30;4.87;;;9.00;99.90;8.90;101302.00;;;;4933046;28;122915;-63
2021/10/18 02:21:57;;;;;;;4.63;4.07;;;9.00;99.90;8.90;101301.00;;;;4933265;28;121984;-62
2021/10/18 02:24:23;;;;;;;10.70;4.57;;;9.00;99.90;8.90;101296.00;;;;4933516;28;110546;-62
2021/10/18 02:26:49;;;;;;;6.40;4.80;;;9.00;99.90;8.90;101297.00;;;;4933696;28;108279;-62
2021/10/18 02:29:14;;;;;;;5.87;4.40;;;9.00;99.90;8.90;101289.00;;;;4932753;28;122560;-63
2021/10/18 02:31:40;;;;;;;5.80;3.87;;;9.00;99.90;8.90;101294.00;;;;4933877;28;93708;-63
2021/10/18 02:34:06;;;;;;;6.40;4.57;;;9.00;99.90;8.80;101292.00;;;;4932629;28;111266;-62
2021/10/18 02:36:31;;;;;;;6.97;4.77;;;8.90;99.90;8.80;101283.00;;;;4933417;28;109818;-61
2021/10/18 02:38:57;;;;;;;6.97;3.70;;;8.90;99.90;8.80;101290.00;;;;4932846;28;121655;-62
2021/10/18 02:41:24;;;;;;;5.03;4.17;;;8.90;99.90;8.80;101289.00;;;;4933050;28;121994;-62
2021/10/18 02:43:50;;;;;;;6.87;4.20;;;8.90;99.90;8.80;101296.00;;;;4933721;28;92932;-61
2021/10/18 02:46:15;;;;;;;7.27;4.77;;;8.80;99.90;8.80;101294.00;;;;4933465;28;109042;-62
2021/10/18 02:48:42;;;;;;;6.27;4.53;;;8.80;99.90;8.70;101286.00;;;;4933304;28;102094;-62
2021/10/18 02:51:07;;;;;;;5.03;4.03;;;8.80;99.90;8.70;101286.00;;;;4915528;28;110512;-62
2021/10/18 02:53:33;;;;;;;5.70;4.10;;;8.80;99.90;8.70;101299.00;;;;4933533;28;110124;-61
2021/10/18 02:55:59;;;;;;;8.13;4.93;;;8.80;99.90;8.80;101285.00;;;;4934005;28;92777;-62
2021/10/18 02:58:25;;;;;;;8.30;4.20;;;8.80;99.90;8.80;101284.00;;;;4932866;28;123099;-61
2021/10/18 03:00:51;;;;;;;8.97;4.90;;;8.80;99.90;8.80;101295.00;;;;4932146;28;123535;-61
2021/10/18 03:03:16;;;;;;;6.60;4.30;;;8.80;99.90;8.80;101294.00;;;;4932531;28;111156;-62
2021/10/18 03:05:42;;;;;;;7.07;4.73;;;8.80;99.90;8.80;101297.00;;;;4933718;28;108140;-61
2021/10/18 03:08:08;;;;;;;7.47;4.73;;;9.20;99.90;8.80;101301.00;;;;4932643;28;124146;-61
2021/10/18 03:10:35;;;;;;;5.13;4.57;;;8.80;99.90;8.70;101297.00;;;;4932490;28;93146;-61
2021/10/18 03:13:00;;;;;;;7.03;4.73;;;8.80;99.90;8.80;101302.00;;;;4933528;28;92742;-61
2021/10/18 03:15:26;;;;;;;5.53;4.77;;;8.80;99.90;8.80;101306.00;;;;4933584;28;108851;-62
2021/10/18 03:17:52;;;;;;;7.73;4.97;;;8.80;99.90;8.70;101306.00;;;;4933183;28;122629;-61
2021/10/18 03:20:18;;;;;;;9.17;5.10;;;8.80;99.90;8.80;101308.00;;;;4933160;28;117528;-61
2021/10/18 03:22:43;;;;;;;9.13;5.20;;;8.80;99.90;8.80;101302.00;;;;4933329;28;93793;-61
2021/10/18 03:25:10;;;;;;;5.50;4.57;;;8.80;99.90;8.80;101315.00;;;;4933628;28;92765;-61
2021/10/18 03:27:36;;;;;;;5.83;4.70;;;8.80;99.90;8.80;101321.00;;;;4933687;28;93592;-62
2021/10/18 03:30:04;;;;;;;6.73;4.80;;;8.80;99.90;8.80;101331.00;;;;4932866;28;93567;-61
2021/10/18 03:32:30;;;;;;;8.77;6.07;;;8.90;99.90;8.80;101313.00;;;;4933424;28;93018;-60
2021/10/18 03:34:56;;;;;;;9.93;4.47;;;8.80;99.90;8.80;101323.00;;;;4933115;28;101231;-61
2021/10/18 03:37:22;;;;;;;6.53;4.73;;;8.80;99.90;8.80;101324.00;;;;4931511;28;123835;-61
2021/10/18 03:39:48;;;;;;;8.47;5.13;;;8.80;99.90;8.80;101324.00;;;;4932475;28;92149;-61
2021/10/18 03:42:14;;;;;;;6.23;4.80;;;8.80;99.90;8.80;101327.00;;;;4932474;28;111352;-61
2021/10/18 03:44:39;;;;;;;7.00;5.30;;;8.90;99.90;8.80;101320.00;;;;4932999;28;95826;-62
2021/10/18 03:47:05;;;;;;;8.07;5.23;;;8.90;99.90;8.80;101327.00;;;;4932629;28;106077;-61
2021/10/18 03:49:31;;;;;;;7.80;4.57;;;8.90;99.90;8.80;101326.00;;;;4931537;28;124061;-61
2021/10/18 03:51:57;;;;;;;5.70;4.30;;;8.90;99.90;8.80;101329.00;;;;4933541;28;93010;-61
2021/10/18 03:54:23;;;;;;;7.40;4.70;;;8.90;99.90;8.90;101314.00;;;;4933302;28;92700;-60
2021/10/18 03:56:48;;;;;;;6.53;4.97;;;8.90;99.90;8.90;101326.00;;;;4931839;28;123508;-61
2021/10/18 03:59:14;;;;;;;6.60;5.43;;;8.90;99.90;8.90;101330.00;;;;4931627;28;123744;-60
2021/10/18 04:01:40;;;;;;;7.57;5.10;;;8.90;99.90;8.90;101330.00;;;;4932454;28;110620;-62
2021/10/18 04:04:05;;;;;;;11.13;5.63;;;9.00;99.90;9.00;101340.00;;;;4933260;28;92495;-59
2021/10/18 04:06:31;;;;;;;8.37;4.93;;;9.00;99.90;9.00;101327.00;;;;4931921;28;122980;-62
2021/10/18 04:08:57;;;;;;;7.33;4.70;;;9.00;99.90;9.00;101331.00;;;;4931642;28;122218;-64
2021/10/18 04:11:23;;;;;;;6.13;5.30;;;9.00;99.90;9.00;101327.00;;;;4932750;28;93799;-60
2021/10/18 04:13:48;;;;;;;5.53;4.17;;;9.00;99.90;9.00;101329.00;;;;4932240;28;108432;-62
2021/10/18 04:16:14;;;;;;;7.90;5.17;;;9.00;99.90;9.00;101336.00;;;;4932073;28;124124;-60
2021/10/18 04:18:40;;;;;;;5.30;4.00;;;9.00;99.90;9.00;101333.00;;;;4932499;28;103717;-59
2021/10/18 04:21:06;;;;;;;8.23;4.40;;;9.00;99.90;9.00;101342.00;;;;4931831;28;111029;-61
2021/10/18 04:23:33;;;;;;;5.40;4.33;;;9.00;99.90;9.00;101334.00;;;;4934511;28;93225;-62
2021/10/18 04:26:00;;;;;;;6.13;4.10;;;9.00;99.90;9.00;101336.00;;;;4935454;28;93038;-59
2021/10/18 04:28:26;;;;;;;5.87;4.77;;;9.50;99.90;8.90;101333.00;;;;4917521;28;102871;-60
2021/10/18 04:30:51;;;;;;;8.73;5.20;;;9.00;99.90;8.90;101332.00;;;;4935635;28;92877;-61
2021/10/18 04:33:17;;;;;;;12.13;5.70;;;9.00;99.90;8.90;101336.00;;;;4934801;28;108619;-62
2021/10/18 04:35:43;;;;;;;6.87;4.53;;;9.00;99.90;8.90;101343.00;;;;4935391;28;96993;-61
2021/10/18 04:38:09;;;;;;;6.20;4.57;;;9.00;99.90;8.90;101347.00;;;;4934600;28;124342;-60
2021/10/18 04:40:34;;;;;;;6.53;5.53;;;9.00;99.90;8.90;101358.00;;;;4934271;28;107205;-61
2021/10/18 04:43:00;;;;;;;7.80;5.53;;;9.00;99.90;8.90;101348.00;;;;4935280;28;108282;-62
2021/10/18 04:45:26;;;;;;;6.80;5.23;;;9.00;99.90;8.90;101347.00;;;;4933914;28;123947;-62
2021/10/18 04:47:52;;;;;;;5.10;4.17;;;9.00;99.90;8.90;101358.00;;;;4936993;28;92916;-62
2021/10/18 04:50:20;;;;;;;5.63;4.57;;;9.00;99.90;8.90;101358.00;;;;4939882;28;93183;-62
2021/10/18 04:52:49;;;;;;;5.90;4.03;;;9.00;99.90;8.90;101358.00;;;;4917920;28;92155;-60
2021/10/18 04:55:15;;;;;;;5.53;4.63;;;9.00;99.90;8.90;101364.00;;;;4914833;28;93370;-60
2021/10/18 04:57:53;;;;;;;10.73;5.07;;;9.00;99.90;8.90;101355.00;;;;4913154;28;93988;-61
2021/10/18 05:00:21;;;;;;;8.47;5.10;;;9.00;99.90;8.90;101370.00;;;;4913130;28;94049;-61
2021/10/18 05:02:47;;;;;;;9.93;4.63;;;9.00;99.90;9.00;101369.00;;;;4918097;28;92953;-61
2021/10/18 05:05:13;;;;;;;8.07;4.40;;;9.00;99.90;8.90;101367.00;;;;4926984;28;93518;-62
2021/10/18 05:07:38;;;;;;;9.83;4.83;;;9.00;99.90;9.00;101370.00;;;;4935165;28;122616;-62
2021/10/18 05:10:07;;;;;;;6.10;5.00;;;9.00;99.90;9.00;101378.00;;;;4931416;28;109048;-62
2021/10/18 05:12:33;;;;;;;6.43;4.57;;;9.10;99.90;9.00;101380.00;;;;4935620;28;92995;-62
2021/10/18 05:14:59;;;;;;;7.43;4.80;;;9.00;99.90;9.00;101380.00;;;;4933973;28;121655;-61
2021/10/18 05:17:24;;;;;;;7.43;4.40;;;9.00;99.90;9.00;101377.00;;;;4934199;28;123426;-61
2021/10/18 05:19:50;;;;;;;7.03;4.60;;;9.00;99.90;8.90;101377.00;;;;4934947;28;92651;-61
2021/10/18 05:22:16;;;;;;;5.83;4.70;;;9.00;99.90;9.00;101384.00;;;;4935414;28;92845;-61
2021/10/18 05:24:41;;;;;;;6.50;4.40;;;9.00;99.90;8.90;101382.00;;;;4932691;28;123381;-62
2021/10/18 05:27:08;;;;;;;4.50;3.97;;;9.00;99.90;9.00;101388.00;;;;4934998;28;94408;-63
2021/10/18 05:29:34;;;;;;;6.50;4.10;;;9.00;99.90;8.90;101394.00;;;;4916768;28;93302;-62
2021/10/18 05:32:00;;;;;;;6.73;4.87;;;9.50;99.90;9.00;101391.00;;;;4934382;28;109063;-61
2021/10/18 05:34:26;;;;;;;5.93;3.93;;;9.00;99.90;8.90;101396.00;;;;4934089;28;93212;-60
2021/10/18 05:36:51;;;;;;;4.47;4.07;;;9.00;99.90;8.90;101393.00;;;;4934793;28;98415;-61
2021/10/18 05:39:17;;;;;;;5.30;4.20;;;9.00;99.90;8.90;101399.00;;;;4933770;28;109700;-61
2021/10/18 05:41:43;;;;;;;5.87;4.50;;;9.00;99.90;8.90;101392.00;;;;4934599;28;108518;-61
2021/10/18 05:44:08;;;;;;;6.10;4.53;;;9.00;99.90;8.90;101401.00;;;;4934636;28;93406;-61
2021/10/18 05:46:34;;;;;;;4.67;3.00;;;9.00;99.90;8.90;101399.00;;;;4933853;28;121794;-61
2021/10/18 05:49:00;;;;;;;7.93;4.20;;;9.00;99.90;8.90;101398.00;;;;4933038;28;111116;-61
2021/10/18 05:51:27;;;;;;;5.40;4.50;;;9.00;99.90;8.90;101406.00;;;;4934438;28;107966;-62
2021/10/18 05:53:54;;;;;;;6.93;4.73;;;8.90;99.90;8.90;101400.00;;;;4934187;28;92968;-61
2021/10/18 05:56:20;;;;;;;5.20;4.03;;;8.90;99.90;8.90;101407.00;;;;4934839;28;93801;-60
2021/10/18 05:58:46;;;;;;;5.00;3.93;;;8.90;99.90;8.90;101400.00;;;;4934289;28;93385;-60
2021/10/18 06:01:12;;;;;;;6.77;4.13;;;9.00;99.90;8.90;101415.00;;;;4934165;28;109057;-60
2021/10/18 06:03:37;;;;;;;6.00;3.43;;;9.00;99.90;8.90;101408.00;;;;4933229;28;123346;-61
2021/10/18 06:06:07;;;;;;;6.70;3.97;;;9.00;99.90;8.90;101422.00;;;;4915338;28;92454;-59
2021/10/18 06:08:32;;;;;;;6.53;3.77;;;9.00;99.90;9.00;101413.00;;;;4915619;28;92783;-59
2021/10/18 06:10:58;;;;;;;7.47;4.37;;;9.00;99.90;9.00;101413.00;;;;4916039;28;96908;-60
2021/10/18 06:13:24;;;;;;;7.30;4.57;;;9.00;99.90;9.00;101418.00;;;;4933299;28;93862;-61
2021/10/18 06:15:52;;;;;;;9.37;4.27;;;9.00;99.90;9.00;101415.00;;;;4934325;28;93113;-60
2021/10/18 06:18:18;;;;;;;5.37;4.30;;;9.00;99.90;9.00;101422.00;;;;4934612;28;92871;-62
2021/10/18 06:20:50;;;;;;;4.13;3.57;;;9.00;99.90;9.00;101418.00;;;;4934185;28;93032;-61
2021/10/18 06:23:18;;;;;;;7.03;4.07;;;9.00;99.90;9.00;101422.00;;;;4934109;28;92858;-60
2021/10/18 06:25:45;;;;;;;4.63;3.73;;;9.00;99.90;9.00;101427.00;;;;4934338;28;92954;-61
2021/10/18 06:28:13;;;;;;;5.00;3.57;;;9.00;99.90;9.00;101425.00;;;;4933676;28;92887;-59
2021/10/18 06:30:39;;;;;;;5.97;3.87;;;9.00;99.90;9.00;101436.00;;;;4934448;28;92175;-62
2021/10/18 06:33:05;;;;;;;5.30;3.47;;;9.10;99.90;9.00;101427.00;;;;4934136;28;93824;-62
2021/10/18 06:35:35;;;;;;;9.27;4.30;;;9.30;99.90;9.00;101431.00;;;;4915931;28;100670;-62
2021/10/18 06:38:08;;;;;;;6.27;4.00;;;9.10;99.90;9.00;101435.00;;;;4933897;28;93857;-61
2021/10/18 06:40:33;;;;;;;4.80;4.00;;;9.10;99.90;9.00;101436.00;;;;4933338;28;93163;-62
2021/10/18 06:42:59;;;;;;;5.03;3.67;;;9.10;99.90;9.10;101436.00;;;;4915754;28;121607;-60
2021/10/18 06:45:25;;;;;;;4.87;3.93;;;9.10;99.90;9.10;101437.00;;;;4914733;28;122141;-64
2021/10/18 06:47:51;;;;;;;8.17;3.60;;;9.10;99.90;9.10;101439.00;;;;4933057;28;107915;-60
2021/10/18 06:50:17;;;;;;;4.60;3.60;;;9.10;99.90;9.10;101443.00;;;;4932480;28;106791;-61
2021/10/18 06:52:43;;;;;;;8.47;3.83;;;9.10;99.90;9.10;101449.00;;;;4934028;28;92821;-60
2021/10/18 06:55:11;;;;;;;10.57;4.50;;;9.20;99.90;9.10;101454.00;;;;4933691;28;93030;-61
2021/10/18 06:57:37;;;;;;;4.30;3.37;;;9.20;99.90;9.10;101459.00;;;;4935183;28;92803;-60
2021/10/18 07:00:05;;;;;;;5.30;4.27;;;9.20;99.90;9.20;101460.00;;;;4933870;28;92804;-61
2021/10/18 07:02:31;;;;;;;5.80;3.77;;;9.20;99.90;9.20;101469.00;;;;4932923;28;94557;-62
2021/10/18 07:04:57;;;;;;;4.90;3.60;;;9.20;99.90;9.20;101467.00;;;;4931914;28;124082;-60
2021/10/18 07:07:26;;;;;;;2.73;2.53;;;9.20;99.90;9.20;101469.00;;;;4933348;28;109898;-60
2021/10/18 07:09:59;;;;;;;4.53;2.93;;;9.30;99.90;9.30;101467.00;;;;4933136;28;92732;-60
2021/10/18 07:12:26;;;;;;;6.70;3.23;;;9.30;99.90;9.30;101466.00;;;;4933576;28;93595;-60
2021/10/18 07:14:53;;;;;;;5.53;3.70;;;9.40;99.90;9.30;101472.00;;;;4933190;28;93978;-60
2021/10/18 07:17:21;;;;;;;7.47;4.37;;;9.40;99.90;9.30;101468.00;;;;4934263;28;93100;-60
2021/10/18 07:19:48;;;;;;;4.50;3.60;;;9.40;99.90;9.40;101464.00;;;;4933692;28;92250;-60
2021/10/18 07:22:19;;;;;;;8.87;3.47;;;9.40;99.90;9.40;101478.00;;;;4933630;28;93982;-60
2021/10/18 07:24:45;;;;;;;4.70;3.57;;;9.50;99.90;9.50;101484.00;;;;4932654;28;93756;-61
2021/10/18 07:27:11;;;;;;;4.33;3.27;;;9.40;99.90;9.50;101485.00;;;;4932060;28;110460;-60
2021/10/18 07:29:38;;;;;;;5.23;3.70;;;9.50;99.90;9.60;101478.00;;;;4933515;28;92994;-60
2021/10/18 07:32:05;;;;;;;4.73;3.00;;;9.60;99.90;9.60;101487.00;;;;4932832;28;94090;-61
2021/10/18 07:34:31;;;;;;;3.13;2.83;;;9.70;99.90;9.70;101475.00;;;;4932596;28;106516;-61
2021/10/18 07:36:56;;;;;;;4.73;3.10;;;9.70;99.90;9.70;101479.00;;;;4933408;28;92793;-60
2021/10/18 07:39:25;;;;;;;3.23;2.50;;;9.70;99.90;9.80;101487.00;;;;4933754;28;93292;-59
2021/10/18 07:41:55;;;;;;;5.40;3.30;;;9.80;99.90;9.90;101494.00;;;;4933231;28;101119;-60
2021/10/18 07:44:24;;;;;;;6.30;3.17;;;9.80;99.90;9.90;101484.00;;;;4933170;28;93821;-63
2021/10/18 07:46:55;;;;;;;5.73;2.67;;;9.90;99.90;10.00;101484.00;;;;4933628;28;92886;-59
2021/10/18 07:49:23;;;;;;;6.17;3.70;;;10.00;99.90;10.10;101487.00;;;;4915418;28;92780;-63
2021/10/18 07:51:50;;;;;;;3.87;3.00;;;10.00;99.90;10.10;101488.00;;;;4932404;28;94993;-62
2021/10/18 07:54:16;;;;;;;3.63;3.30;;;10.10;99.90;10.10;101486.00;;;;4932877;28;94015;-62
2021/10/18 07:56:41;;;;;;;5.57;3.27;;;10.20;99.90;10.20;101491.00;;;;4933753;28;93011;-63
2021/10/18 07:59:07;;;;;;;5.63;3.13;;;10.20;99.90;10.30;101496.00;;;;4936035;28;108416;-62
2021/10/18 08:01:33;;;;;;;6.30;3.23;;;10.30;99.90;10.40;101501.00;;;;4936214;28;93505;-62
2021/10/18 08:03:58;;;;;;;5.93;3.30;;;10.40;99.90;10.40;101508.00;;;;4935261;28;122212;-62
2021/10/18 08:06:24;;;;;;;9.03;3.87;;;10.40;99.90;10.50;101512.00;;;;4936295;28;111146;-62
2021/10/18 08:08:52;;;;;;;5.90;3.23;;;10.50;99.90;10.60;101513.00;;;;4936036;28;94840;-62
2021/10/18 08:11:18;;;;;;;5.23;2.87;;;10.60;99.90;10.70;101518.00;;;;4935600;28;94012;-62
2021/10/18 08:13:45;;;;;;;4.77;3.17;;;10.60;99.90;10.70;101517.00;;;;4936280;28;93936;-62
2021/10/18 08:16:11;;;;;;;5.77;3.20;;;10.70;99.90;10.80;101509.00;;;;4935965;28;93854;-63
2021/10/18 08:18:38;;;;;;;4.57;2.87;;;10.80;99.90;10.90;101523.00;;;;4935883;28;92860;-62
2021/10/18 08:21:08;;;;;;;8.13;3.23;;;10.80;99.90;11.00;101531.00;;;;4935217;28;93777;-61
2021/10/18 08:23:35;;;;;;;4.37;2.90;;;10.90;99.90;11.00;101528.00;;;;4934995;28;107728;-61
2021/10/18 08:26:03;;;;;;;3.90;2.70;;;11.00;99.90;11.10;101545.00;;;;4934961;28;110327;-60
2021/10/18 08:28:29;;;;;;;5.40;3.23;;;11.10;99.90;11.20;101535.00;;;;4918140;28;92917;-62
2021/10/18 08:30:55;;;;;;;4.07;2.30;;;11.20;99.90;11.30;101543.00;;;;4934563;28;93075;-61
2021/10/18 08:33:21;;;;;;;5.87;2.67;;;11.20;99.90;11.30;101538.00;;;;4918087;28;92692;-61
2021/10/18 08:35:48;;;;;;;4.60;2.80;;;11.30;99.90;11.40;101520.00;;;;4936648;28;92566;-62
2021/10/18 08:45:54;;;;;;;2.00;1.80;;;11.50;99.90;11.60;101523.00;;;;4934670;28;92961;-61
2021/10/18 08:48:20;;;;;;;4.23;2.37;;;11.60;99.90;11.70;101524.00;;;;4935832;28;93024;-62
2021/10/18 08:50:48;;;;;;;2.53;2.33;;;11.70;99.90;11.80;101518.00;;;;4935567;28;102583;-62
2021/10/18 08:53:14;;;;;;;3.57;2.20;;;11.70;99.90;11.90;101514.00;;;;4934928;28;115706;-62
2021/10/18 08:55:41;;;;;;;5.07;2.67;;;11.80;99.90;11.90;101525.00;;;;4935529;28;99306;-61
2021/10/18 08:58:08;;;;;;;3.97;2.40;;;11.80;99.90;12.00;101526.00;;;;4936054;28;92203;-60
2021/10/18 09:00:46;;;;;;;3.93;2.40;;;12.10;99.90;12.00;101526.00;;;;4935216;28;93713;-60
2021/10/18 09:03:31;;;;;;;2.20;1.97;;;12.00;99.90;12.10;101518.00;;;;4934867;28;93243;-61
2021/10/18 09:06:13;;;;;;;2.40;1.97;;;12.10;99.90;12.20;101522.00;;;;4917298;28;93755;-59
2021/10/18 09:08:48;;;;;;;3.70;2.57;;;12.10;99.90;12.30;101524.00;;;;4935022;28;93256;-61
2021/10/18 09:11:18;;;;;;;3.23;2.07;;;12.20;99.90;12.40;101524.00;;;;4931213;28;93092;-62
2021/10/18 09:14:04;;;;;;;2.87;1.87;;;12.30;99.90;12.50;101521.00;;;;4934874;28;93288;-61
2021/10/18 09:16:39;;;;;;;2.13;1.77;;;12.30;99.90;12.60;101531.00;;;;4934272;28;92777;-61
2021/10/18 09:19:18;;;;;;;2.10;1.73;;;12.50;99.90;12.90;101525.00;;;;4934715;28;92940;-61
2021/10/18 09:21:55;;;;;;;2.70;2.07;;;12.70;99.90;13.10;101522.00;;;;4934635;28;93555;-61
2021/10/18 09:24:41;;;;;;;3.17;2.00;;;13.00;99.90;13.30;101532.00;;;;4934962;28;93454;-59
2021/10/18 09:27:17;;;;;;;4.23;2.17;;;13.10;99.90;13.50;101523.00;;;;4935773;28;92640;-62
2021/10/18 09:29:49;;;;;;;2.00;1.50;;;13.40;99.90;13.70;101525.00;;;;4934906;28;93329;-63
2021/10/18 09:32:27;;;;;;;3.87;1.97;;;13.60;99.90;14.00;101532.00;;;;4934433;28;93781;-61
2021/10/18 09:35:13;;;;;;;2.50;1.40;;;13.80;99.90;14.20;101536.00;;;;4934412;28;101835;-62
2021/10/18 09:37:41;;;;;;;1.40;1.30;;;14.00;99.90;14.50;101540.00;;;;4926973;28;93023;-62
2021/10/18 09:40:09;;;;;;;2.17;1.90;;;14.30;99.90;14.70;101538.00;;;;4934699;28;93047;-63
2021/10/18 09:42:34;;;;;;;1.67;1.40;;;14.50;99.90;14.90;101531.00;;;;4935158;28;93654;-62
2021/10/18 09:45:26;;;;;;;3.13;1.30;;;14.70;99.90;15.00;101526.00;;;;4933931;28;122975;-60
2021/10/18 10:51:10;;;;;;;2.60;1.13;;;19.20;57.00;19.60;101515.00;;;;4917388;28;93047;-64
2021/10/18 10:56:29;;;;;;;2.40;1.20;;;19.50;55.20;20.00;101524.00;;;;4932454;28;93621;-65
2021/10/18 10:59:21;;;;;;;2.70;1.15;;;19.70;53.80;20.10;101523.00;;;;4915935;28;92882;-65
2021/10/18 11:02:02;;;;;;;0.93;0.70;;;19.90;53.00;20.30;101514.00;;;;4922142;28;93936;-65
2021/10/18 11:04:31;;;;;;;0.80;0.80;;;20.00;53.00;20.40;101516.00;;;;4933880;28;93260;-65
2021/10/18 11:07:02;;;;;;;1.15;0.98;;;20.10;52.60;20.50;101515.00;;;;4934191;28;92742;-65
2021/10/18 11:09:51;;;;;;;1.63;0.98;;;20.20;52.60;20.50;101520.00;;;;4933405;28;92782;-65
2021/10/18 11:12:16;;;;;;;3.15;1.05;;;20.20;52.80;20.60;101518.00;;;;4933108;28;93028;-66
2021/10/18 11:14:55;;;;;;;2.10;1.00;;;20.20;53.00;20.90;101508.00;;;;4933562;28;97718;-65
2021/10/18 11:17:22;;;;;;;2.03;1.33;;;20.50;53.10;21.10;101508.00;;;;4934285;28;93009;-65
2021/10/18 11:19:57;;;;;;;1.33;1.20;;;20.80;50.60;21.00;101514.00;;;;4933528;28;93038;-65
2021/10/18 11:22:32;;;;;;;2.58;1.30;;;20.70;49.90;20.90;101511.00;;;;4932963;28;94010;-65
2021/10/18 11:24:59;;;;;;;1.10;0.82;;;20.70;49.30;20.70;101509.00;;;;4915314;28;93252;-65
2021/10/18 11:27:32;;;;;;;4.47;0.95;;;20.50;48.90;20.40;101513.00;;;;4933321;28;93107;-65
2021/10/18 11:30:13;;;;;;;0.93;0.73;;;20.30;48.60;20.00;101506.00;;;;4933450;28;92826;-65
2021/10/18 11:32:39;;;;;;;2.55;1.15;;;20.00;48.70;19.80;101508.00;;;;4914460;28;93283;-65
2021/10/18 11:35:17;;;;;;;0.98;0.75;;;19.70;48.70;19.70;101508.00;;;;4933274;28;93275;-66
2021/10/18 11:38:07;;;;;;;2.20;1.20;;;19.60;50.20;19.60;101511.00;;;;4933446;28;92821;-65
2021/10/18 11:40:38;;;;;;;0.80;0.70;;;19.50;51.10;19.60;101509.00;;;;4933839;28;91956;-64
2021/10/18 11:43:07;;;;;;;1.15;0.93;;;19.40;51.20;19.50;101500.00;;;;4932737;28;93776;-65
2021/10/18 11:45:37;;;;;;;1.15;0.60;;;19.40;50.80;19.30;101510.00;;;;4933255;28;93026;-65
2021/10/18 11:48:25;;;;;;;1.02;0.80;;;19.20;50.50;19.30;101496.00;;;;4932774;28;93941;-64
2021/10/18 11:50:58;;;;;;;1.33;1.02;;;19.10;51.80;19.40;101487.00;;;;4933181;28;92822;-64
2021/10/18 11:53:30;;;;;;;0.40;0.40;;;19.20;50.90;19.60;101481.00;;;;4933235;28;93892;-65
2021/10/18 11:55:59;;;;;;;1.08;0.90;;;19.30;51.10;19.80;101492.00;;;;4933065;28;93186;-65
2021/10/18 11:58:33;;;;;;;1.13;0.88;;;19.50;50.60;20.00;101490.00;;;;4933572;28;92866;-65
2021/10/18 12:01:09;;;;;;;1.33;0.73;;;19.60;51.00;20.10;101494.00;;;;4932912;28;92686;-64
2021/10/18 12:03:37;;;;;;;1.27;1.17;;;19.80;50.10;20.20;101492.00;;;;4932354;28;93546;-66
2021/10/18 12:06:09;;;;;;;3.03;0.63;;;19.90;50.10;20.30;101503.00;;;;4915168;28;92190;-66
2021/10/18 12:08:40;;;;;;;1.02;0.75;;;20.00;50.40;20.30;101496.00;;;;4933359;28;92975;-66
2021/10/18 12:11:10;;;;;;;1.17;1.02;;;20.00;49.90;20.20;101490.00;;;;4933760;28;93402;-65